createdAt,value
2023-05-01T00:02:24.232Z,12.22
2023-05-01T00:04:51.565Z,12.11
2023-05-01T00:07:18.584Z,12.15
2023-05-01T00:09:46.048Z,12.12
2023-05-01T00:12:13.212Z,12.06
2023-05-01T00:14:42.389Z,12.07
2023-05-01T00:17:10.713Z,11.95
2023-05-01T00:19:37.945Z,11.85
2023-05-01T00:22:04.880Z,11.95
2023-05-01T00:24:32.106Z,11.83
2023-05-01T00:26:59.276Z,11.49
2023-05-01T00:29:26.718Z,11.96
2023-05-01T00:31:54.539Z,11.63
2023-05-01T00:34:25.128Z,11.83
2023-05-01T00:36:52.362Z,11.69
2023-05-01T00:39:19.731Z,11.73
2023-05-01T00:41:46.672Z,11.58
2023-05-01T00:44:13.974Z,11.58
2023-05-01T00:46:40.940Z,11.70
2023-05-01T00:49:10.777Z,11.55
2023-05-01T00:51:39.313Z,11.67
2023-05-01T00:54:07.245Z,11.59
2023-05-01T00:56:34.167Z,11.66
2023-05-01T00:59:01.550Z,11.70
2023-05-01T01:01:28.922Z,11.73
2023-05-01T01:03:56.735Z,11.70
2023-05-01T01:06:33.117Z,11.38
2023-05-01T01:09:13.045Z,11.63
2023-05-01T01:11:46.476Z,11.60
2023-05-01T01:14:19.096Z,11.70
2023-05-01T01:16:55.020Z,11.63
2023-05-01T01:19:45.741Z,11.70
2023-05-01T01:22:18.986Z,11.68
2023-05-01T01:25:16.525Z,11.69
2023-05-01T01:28:06.485Z,11.63
2023-05-01T01:31:09.018Z,11.65
2023-05-01T01:33:59.056Z,11.62
2023-05-01T01:36:34.903Z,11.40
2023-05-01T01:39:10.536Z,11.28
2023-05-01T01:41:39.448Z,11.52
2023-05-01T01:44:12.814Z,11.48
2023-05-01T01:46:42.830Z,11.46
2023-05-01T01:49:15.841Z,11.41
2023-05-01T01:51:45.542Z,11.32
2023-05-01T01:54:18.412Z,11.26
2023-05-01T01:56:47.331Z,11.23
2023-05-01T01:59:15.912Z,11.31
2023-05-01T02:01:44.720Z,11.34
2023-05-01T02:04:15.195Z,11.33
2023-05-01T02:06:44.773Z,11.14
2023-05-01T02:09:12.686Z,11.27
2023-05-01T02:11:41.448Z,11.28
2023-05-01T02:14:10.795Z,11.28
2023-05-01T02:16:38.232Z,11.27
2023-05-01T02:19:05.562Z,11.17
2023-05-01T02:21:37.805Z,11.16
2023-05-01T02:24:06.636Z,11.16
2023-05-01T02:26:38.720Z,11.16
2023-05-01T02:29:07.501Z,11.15
2023-05-01T02:31:34.582Z,11.05
2023-05-01T02:34:01.570Z,10.99
2023-05-01T02:36:29.078Z,10.94
2023-05-01T02:38:58.016Z,10.91
2023-05-01T02:41:27.974Z,10.75
2023-05-01T02:44:00.624Z,10.85
2023-05-01T02:46:29.736Z,10.89
2023-05-01T02:48:58.188Z,10.90
2023-05-01T02:51:26.545Z,10.90
2023-05-01T02:53:54.353Z,10.92
2023-05-01T02:56:23.543Z,10.93
2023-05-01T02:58:50.502Z,10.88
2023-05-01T03:01:17.836Z,10.81
2023-05-01T03:03:45.033Z,10.74
2023-05-01T03:06:14.335Z,10.77
2023-05-01T03:08:41.078Z,10.76
2023-05-01T03:11:08.340Z,10.72
2023-05-01T03:13:36.764Z,10.69
2023-05-01T03:16:04.868Z,10.66
2023-05-01T03:18:34.163Z,10.59
2023-05-01T03:21:01.567Z,10.69
2023-05-01T03:23:28.677Z,10.64
2023-05-01T03:25:56.111Z,10.59
2023-05-01T03:28:23.652Z,10.57
2023-05-01T03:30:52.979Z,10.59
2023-05-01T03:33:19.811Z,10.56
2023-05-01T03:35:47.943Z,10.53
2023-05-01T03:38:16.407Z,10.46
2023-05-01T03:40:43.748Z,10.44
2023-05-01T03:43:10.713Z,10.37
2023-05-01T03:45:38.063Z,10.43
2023-05-01T03:48:06.766Z,10.47
2023-05-01T03:50:33.839Z,10.51
2023-05-01T03:53:00.751Z,10.49
2023-05-01T03:55:28.008Z,10.54
2023-05-01T03:57:55.117Z,10.59
2023-05-01T04:00:22.517Z,10.65
2023-05-01T04:02:49.829Z,10.59
2023-05-01T04:05:19.094Z,10.64
2023-05-01T04:07:46.442Z,10.69
2023-05-01T04:10:13.784Z,10.77
2023-05-01T04:12:41.120Z,10.81
2023-05-01T04:15:09.928Z,10.90
2023-05-01T04:17:37.245Z,10.93
2023-05-01T04:20:08.298Z,11.01
2023-05-01T04:22:37.273Z,11.13
2023-05-01T04:25:05.104Z,11.32
2023-05-01T04:27:32.103Z,11.53
2023-05-01T04:29:59.526Z,11.76
2023-05-01T04:32:26.882Z,12.10
2023-05-01T04:34:54.284Z,12.42
2023-05-01T04:37:21.194Z,12.73
2023-05-01T04:39:50.976Z,13.01
2023-05-01T04:42:18.313Z,13.51
2023-05-01T04:44:45.904Z,14.25
2023-05-01T04:47:12.961Z,14.75
2023-05-01T04:49:40.336Z,14.93
2023-05-01T04:52:07.270Z,15.19
2023-05-01T04:54:34.608Z,15.58
2023-05-01T04:57:03.349Z,16.48
2023-05-01T04:59:30.628Z,17.94
2023-05-01T05:01:57.697Z,19.95
2023-05-01T05:04:25.188Z,21.79
2023-05-01T05:06:52.390Z,23.02
2023-05-01T05:09:20.334Z,23.70
2023-05-01T05:11:47.429Z,24.48
2023-05-01T05:14:16.087Z,25.38
2023-05-01T05:16:43.236Z,25.45
2023-05-01T05:19:10.390Z,25.74
2023-05-01T05:21:37.444Z,26.34
2023-05-01T05:24:05.183Z,27.03
2023-05-01T05:26:32.280Z,27.43
2023-05-01T05:28:59.499Z,26.82
2023-05-01T05:31:27.951Z,25.80
2023-05-01T05:33:55.254Z,24.25
2023-05-01T05:36:22.242Z,23.33
2023-05-01T05:38:49.636Z,22.70
2023-05-01T05:41:16.676Z,22.12
2023-05-01T05:43:44.310Z,21.43
2023-05-01T05:46:11.712Z,20.78
2023-05-01T05:48:40.548Z,20.42
2023-05-01T05:51:07.424Z,20.36
2023-05-01T05:53:34.750Z,20.31
2023-05-01T05:56:01.895Z,19.98
2023-05-01T05:58:31.997Z,19.52
2023-05-01T06:01:00.720Z,19.50
2023-05-01T06:03:28.853Z,19.46
2023-05-01T06:05:57.738Z,19.31
2023-05-01T06:08:26.110Z,19.29
2023-05-01T06:10:53.300Z,19.51
2023-05-01T06:13:20.838Z,19.33
2023-05-01T06:15:48.082Z,19.15
2023-05-01T06:18:17.414Z,18.98
2023-05-01T06:20:44.871Z,18.61
2023-05-01T06:23:13.933Z,18.51
2023-05-01T06:25:40.899Z,18.72
2023-05-01T06:28:08.397Z,18.84
2023-05-01T06:30:35.454Z,18.93
2023-05-01T06:33:03.150Z,19.01
2023-05-01T06:35:30.200Z,19.04
2023-05-01T06:37:57.507Z,19.01
2023-05-01T06:40:25.928Z,18.92
2023-05-01T06:42:53.330Z,19.04
2023-05-01T06:45:28.400Z,19.19
2023-05-01T06:47:57.948Z,19.50
2023-05-01T06:50:25.361Z,19.93
2023-05-01T06:52:54.609Z,20.18
2023-05-01T06:55:22.604Z,19.75
2023-05-01T06:57:51.184Z,19.94
2023-05-01T07:00:19.201Z,20.19
2023-05-01T07:02:46.816Z,20.48
2023-05-01T07:05:14.034Z,20.58
2023-05-01T07:07:47.374Z,20.28
2023-05-01T07:10:17.823Z,20.11
2023-05-01T07:12:45.738Z,20.15
2023-05-01T07:15:16.218Z,19.97
2023-05-01T07:17:43.728Z,20.04
2023-05-01T07:20:11.525Z,20.25
2023-05-01T07:22:38.810Z,20.43
2023-05-01T07:25:07.367Z,20.55
2023-05-01T07:27:35.127Z,20.39
2023-05-01T07:30:05.163Z,20.26
2023-05-01T07:32:34.271Z,20.38
2023-05-01T07:35:01.965Z,20.60
2023-05-01T07:37:29.586Z,20.65
2023-05-01T07:39:57.150Z,20.91
2023-05-01T07:42:26.403Z,20.95
2023-05-01T07:44:53.524Z,20.57
2023-05-01T07:47:27.620Z,20.86
2023-05-01T07:49:56.652Z,21.12
2023-05-01T07:52:24.827Z,21.27
2023-05-01T07:54:51.986Z,20.96
2023-05-01T07:57:19.533Z,21.17
2023-05-01T07:59:46.853Z,20.69
2023-05-01T08:02:17.366Z,20.41
2023-05-01T08:04:46.164Z,20.10
2023-05-01T08:07:15.266Z,20.32
2023-05-01T08:09:42.448Z,20.56
2023-05-01T08:12:09.836Z,20.99
2023-05-01T08:14:37.528Z,21.02
2023-05-01T08:17:04.865Z,20.79
2023-05-01T08:19:33.590Z,20.87
2023-05-01T08:22:01.045Z,20.75
2023-05-01T08:24:30.030Z,20.47
2023-05-01T08:26:58.274Z,20.83
2023-05-01T08:29:25.843Z,21.04
2023-05-01T08:31:53.575Z,20.71
2023-05-01T08:34:21.118Z,20.90
2023-05-01T08:36:48.445Z,21.61
2023-05-01T08:39:15.810Z,21.52
2023-05-01T08:41:47.276Z,21.87
2023-05-01T08:44:16.469Z,21.91
2023-05-01T08:46:48.118Z,21.94
2023-05-01T08:49:19.841Z,21.70
2023-05-01T08:51:48.642Z,22.19
2023-05-01T08:54:17.780Z,22.19
2023-05-01T08:56:47.365Z,22.22
2023-05-01T08:59:15.943Z,21.71
2023-05-01T09:01:47.119Z,21.82
2023-05-01T09:04:19.008Z,22.15
2023-05-01T09:06:46.859Z,22.24
2023-05-01T09:09:13.889Z,22.25
2023-05-01T09:11:44.788Z,22.42
2023-05-01T09:14:13.165Z,22.48
2023-05-01T09:16:40.141Z,22.47
2023-05-01T09:19:09.549Z,22.57
2023-05-01T09:21:36.867Z,22.85
2023-05-01T09:24:04.952Z,23.06
2023-05-01T09:26:34.224Z,23.07
2023-05-01T09:29:02.769Z,23.06
2023-05-01T09:31:35.071Z,22.94
2023-05-01T09:34:03.972Z,22.86
2023-05-01T09:36:33.674Z,23.03
2023-05-01T09:39:03.266Z,23.16
2023-05-01T09:41:33.973Z,23.36
2023-05-01T09:44:01.825Z,23.38
2023-05-01T09:46:40.852Z,23.41
2023-05-01T09:49:11.545Z,23.36
2023-05-01T09:51:39.898Z,23.42
2023-05-01T09:54:18.552Z,23.54
2023-05-01T09:56:48.328Z,23.41
2023-05-01T09:59:20.085Z,23.09
2023-05-01T10:01:50.301Z,23.30
2023-05-01T10:04:30.128Z,23.71
2023-05-01T10:07:12.253Z,23.63
2023-05-01T10:09:44.864Z,24.08
2023-05-01T10:12:23.990Z,23.80
2023-05-01T10:14:52.548Z,24.31
2023-05-01T10:17:23.790Z,24.40
2023-05-01T10:19:55.705Z,24.49
2023-05-01T10:22:23.688Z,24.49
2023-05-01T10:24:50.952Z,24.62
2023-05-01T10:27:23.252Z,24.73
2023-05-01T10:29:52.583Z,24.52
2023-05-01T10:32:21.435Z,24.54
2023-05-01T10:34:52.589Z,24.14
2023-05-01T10:37:24.782Z,23.96
2023-05-01T10:39:51.843Z,24.21
2023-05-01T10:42:21.849Z,24.06
2023-05-01T10:44:52.814Z,24.52
2023-05-01T10:47:45.275Z,24.65
2023-05-01T10:50:15.834Z,24.14
2023-05-01T10:53:18.164Z,24.41
2023-05-01T10:55:49.269Z,24.69
2023-05-01T10:59:07.437Z,24.55
2023-05-01T11:01:36.801Z,24.63
2023-05-01T11:04:08.021Z,24.65
2023-05-01T11:06:36.452Z,24.57
2023-05-01T11:09:39.669Z,24.68
2023-05-01T11:12:07.904Z,25.01
2023-05-01T11:14:54.241Z,25.01
2023-05-01T11:17:46.056Z,24.88
2023-05-01T11:20:34.581Z,25.00
2023-05-01T11:23:04.670Z,25.11
2023-05-01T11:25:33.988Z,25.11
2023-05-01T11:28:03.827Z,25.11
2023-05-01T11:30:37.740Z,25.07
2023-05-01T11:33:05.789Z,24.84
2023-05-01T11:35:34.078Z,24.76
2023-05-01T11:38:03.717Z,24.54
2023-05-01T11:40:34.323Z,24.33
2023-05-01T11:43:02.886Z,24.21
2023-05-01T11:45:31.175Z,24.41
2023-05-01T11:47:59.475Z,24.42
2023-05-01T11:50:32.876Z,24.25
2023-05-01T11:53:02.874Z,24.32
2023-05-01T11:55:35.815Z,24.34
2023-05-01T11:58:04.946Z,24.28
2023-05-01T12:00:38.208Z,24.16
2023-05-01T12:03:08.369Z,24.15
2023-05-01T12:05:37.576Z,23.89
2023-05-01T12:08:10.141Z,24.09
2023-05-01T12:10:40.981Z,24.27
2023-05-01T12:13:09.212Z,24.35
2023-05-01T12:15:37.370Z,24.31
2023-05-01T12:18:05.229Z,24.46
2023-05-01T12:20:37.930Z,24.58
2023-05-01T12:23:05.974Z,24.65
2023-05-01T12:25:34.954Z,24.64
2023-05-01T12:28:10.324Z,24.68
2023-05-01T12:30:38.295Z,24.81
2023-05-01T12:33:12.813Z,24.92
2023-05-01T12:35:41.114Z,24.85
2023-05-01T12:38:13.157Z,24.83
2023-05-01T12:40:49.385Z,24.96
2023-05-01T12:43:18.895Z,25.10
2023-05-01T12:45:49.518Z,25.09
2023-05-01T12:48:16.689Z,25.02
2023-05-01T12:50:47.287Z,24.89
2023-05-01T12:53:15.054Z,24.82
2023-05-01T12:55:45.673Z,24.55
2023-05-01T12:58:12.932Z,24.90
2023-05-01T13:00:49.179Z,25.00
2023-05-01T13:03:23.316Z,25.09
2023-05-01T13:05:52.664Z,25.03
2023-05-01T13:08:27.750Z,24.92
2023-05-01T13:10:57.277Z,24.95
2023-05-01T13:13:29.436Z,24.94
2023-05-01T13:16:14.305Z,25.01
2023-05-01T13:18:49.144Z,24.88
2023-05-01T13:21:18.948Z,25.10
2023-05-01T13:23:53.772Z,25.10
2023-05-01T13:26:27.013Z,24.80
2023-05-01T13:28:54.213Z,24.56
2023-05-01T13:31:22.933Z,24.50
2023-05-01T13:33:51.745Z,24.51
2023-05-01T13:36:26.115Z,24.52
2023-05-01T13:38:57.500Z,24.50
2023-05-01T13:41:26.405Z,24.70
2023-05-01T13:43:56.076Z,24.69
2023-05-01T13:46:26.621Z,24.58
2023-05-01T13:48:53.793Z,24.51
2023-05-01T13:51:25.320Z,24.51
2023-05-01T13:53:57.482Z,24.62
2023-05-01T13:56:24.950Z,24.76
2023-05-01T13:58:51.875Z,25.02
2023-05-01T14:01:21.370Z,25.09
2023-05-01T14:03:50.354Z,24.93
2023-05-01T14:06:19.190Z,24.90
2023-05-01T14:08:48.099Z,24.83
2023-05-01T14:11:15.809Z,24.66
2023-05-01T14:13:44.237Z,24.65
2023-05-01T14:16:18.799Z,24.74
2023-05-01T14:18:47.425Z,24.65
2023-05-01T14:21:18.569Z,24.65
2023-05-01T14:23:46.105Z,24.76
2023-05-01T14:26:18.597Z,24.88
2023-05-01T14:28:48.121Z,24.88
2023-05-01T14:31:24.265Z,24.79
2023-05-01T14:33:55.671Z,24.47
2023-05-01T14:36:24.662Z,24.29
2023-05-01T14:41:21.170Z,23.98
2023-05-01T14:43:51.220Z,24.03
2023-05-01T14:46:30.914Z,23.99
2023-05-01T14:48:58.361Z,23.98
2023-05-01T14:51:27.552Z,24.09
2023-05-01T14:53:55.077Z,23.64
2023-05-01T14:56:23.083Z,23.75
2023-05-01T14:58:53.263Z,23.77
2023-05-01T15:01:20.800Z,23.75
2023-05-01T15:03:47.989Z,23.56
2023-05-01T15:06:15.810Z,23.44
2023-05-01T15:08:44.457Z,23.50
2023-05-01T15:11:14.309Z,23.58
2023-05-01T15:13:42.741Z,23.65
2023-05-01T15:16:11.210Z,23.66
2023-05-01T15:18:38.252Z,23.73
2023-05-01T15:21:05.657Z,23.62
2023-05-01T15:23:32.903Z,23.59
2023-05-01T15:26:01.790Z,23.54
2023-05-01T15:28:28.808Z,23.50
2023-05-01T15:30:58.839Z,23.50
2023-05-01T15:33:26.426Z,23.50
2023-05-01T15:35:53.984Z,23.51
2023-05-01T15:38:21.703Z,23.49
2023-05-01T15:40:50.088Z,23.41
2023-05-01T15:43:18.667Z,23.30
2023-05-01T15:45:46.203Z,23.31
2023-05-01T15:48:13.254Z,23.20
2023-05-01T15:50:40.944Z,23.40
2023-05-01T15:53:08.585Z,23.31
2023-05-01T15:55:36.740Z,23.42
2023-05-01T15:58:03.819Z,23.55
2023-05-01T16:00:36.167Z,23.46
2023-05-01T16:03:04.529Z,23.74
2023-05-01T16:05:32.280Z,23.70
2023-05-01T16:08:00.817Z,23.59
2023-05-01T16:10:28.254Z,23.49
2023-05-01T16:12:55.553Z,23.11
2023-05-01T16:15:23.168Z,23.27
2023-05-01T16:17:52.067Z,23.19
2023-05-01T16:20:20.534Z,22.88
2023-05-01T16:22:47.917Z,23.06
2023-05-01T16:25:17.368Z,22.81
2023-05-01T16:27:47.559Z,22.86
2023-05-01T16:30:15.066Z,22.71
2023-05-01T16:32:43.248Z,22.52
2023-05-01T16:35:17.356Z,22.65
2023-05-01T16:37:44.768Z,22.62
2023-05-01T16:40:16.598Z,22.56
2023-05-01T16:42:50.599Z,22.37
2023-05-01T16:45:18.148Z,22.45
2023-05-01T16:47:45.984Z,22.51
2023-05-01T16:50:16.399Z,22.46
2023-05-01T16:52:43.813Z,22.35
2023-05-01T16:55:11.592Z,22.26
2023-05-01T16:57:38.658Z,22.16
2023-05-01T17:00:09.484Z,22.04
2023-05-01T17:02:37.047Z,22.05
2023-05-01T17:05:04.920Z,22.09
2023-05-01T17:07:35.264Z,22.06
2023-05-01T17:10:07.677Z,21.87
2023-05-01T17:12:36.798Z,21.87
2023-05-01T17:15:04.856Z,21.84
2023-05-01T17:17:32.264Z,21.83
2023-05-01T17:19:59.784Z,21.84
2023-05-01T17:22:29.043Z,21.63
2023-05-01T17:25:02.133Z,21.68
2023-05-01T17:27:29.690Z,21.54
2023-05-01T17:30:26.055Z,21.67
2023-05-01T17:32:53.762Z,21.33
2023-05-01T17:35:21.201Z,21.55
2023-05-01T17:37:48.166Z,21.39
2023-05-01T17:40:17.270Z,21.33
2023-05-01T17:42:47.302Z,21.35
2023-05-01T17:45:14.836Z,21.29
2023-05-01T17:47:45.270Z,20.82
2023-05-01T17:50:16.134Z,21.21
2023-05-01T17:52:45.149Z,20.85
2023-05-01T17:55:18.317Z,21.16
2023-05-01T17:57:47.713Z,20.74
2023-05-01T18:00:16.310Z,20.66
2023-05-01T18:02:45.105Z,21.00
2023-05-01T18:05:13.223Z,20.90
2023-05-01T18:07:40.971Z,20.80
2023-05-01T18:10:10.764Z,20.68
2023-05-01T18:12:40.225Z,20.63
2023-05-01T18:15:11.704Z,20.54
2023-05-01T18:17:38.720Z,20.44
2023-05-01T18:20:09.436Z,20.00
2023-05-01T18:22:38.111Z,19.87
2023-05-01T18:25:07.801Z,19.79
2023-05-01T18:27:35.716Z,20.14
2023-05-01T18:30:03.180Z,20.06
2023-05-01T18:32:46.910Z,20.00
2023-05-01T18:35:21.162Z,19.91
2023-05-01T18:37:48.157Z,19.89
2023-05-01T18:40:15.506Z,19.41
2023-05-01T18:42:42.950Z,19.76
2023-05-01T18:45:10.861Z,19.31
2023-05-01T18:47:48.955Z,18.81
2023-05-01T18:50:21.556Z,19.31
2023-05-01T18:52:49.030Z,19.59
2023-05-01T18:55:17.674Z,19.17
2023-05-01T18:57:46.722Z,19.37
2023-05-01T19:00:16.810Z,18.88
2023-05-01T19:02:54.270Z,18.86
2023-05-01T19:05:22.816Z,18.22
2023-05-01T19:07:50.108Z,18.73
2023-05-01T19:10:18.051Z,18.95
2023-05-01T19:12:48.371Z,18.91
2023-05-01T19:15:18.464Z,18.68
2023-05-01T19:17:46.985Z,18.34
2023-05-01T19:20:14.218Z,18.74
2023-05-01T19:22:41.489Z,18.65
2023-05-01T19:25:09.921Z,18.71
2023-05-01T19:27:37.246Z,18.69
2023-05-01T19:30:05.672Z,17.81
2023-05-01T19:32:32.874Z,18.51
2023-05-01T19:35:01.802Z,18.51
2023-05-01T19:37:28.833Z,18.36
2023-05-01T19:39:56.719Z,18.05
2023-05-01T19:42:24.024Z,18.16
2023-05-01T19:44:51.314Z,18.10
2023-05-01T19:47:18.341Z,18.06
2023-05-01T19:49:45.895Z,17.95
2023-05-01T19:52:14.703Z,18.05
2023-05-01T19:54:44.945Z,18.03
2023-05-01T19:57:12.965Z,17.57
2023-05-01T19:59:41.303Z,17.48
2023-05-01T20:02:10.744Z,17.28
2023-05-01T20:04:38.773Z,17.22
2023-05-01T20:07:06.397Z,17.27
2023-05-01T20:09:35.359Z,17.57
2023-05-01T20:12:03.201Z,17.03
2023-05-01T20:14:33.528Z,17.29
2023-05-01T20:17:01.381Z,16.83
2023-05-01T20:19:29.035Z,16.86
2023-05-01T20:21:56.216Z,16.83
2023-05-01T20:24:24.969Z,17.15
2023-05-01T20:26:55.861Z,17.26
2023-05-01T20:29:27.032Z,16.47
2023-05-01T20:31:54.810Z,17.02
2023-05-01T20:34:23.476Z,17.02
2023-05-01T20:36:50.735Z,16.57
2023-05-01T20:39:18.069Z,16.59
2023-05-01T20:41:46.358Z,17.04
2023-05-01T20:44:15.674Z,16.66
2023-05-01T20:46:43.354Z,16.54
2023-05-01T20:49:12.529Z,16.97
2023-05-01T20:51:41.640Z,16.46
2023-05-01T20:54:09.444Z,16.48
2023-05-01T20:56:36.529Z,16.51
2023-05-01T20:59:04.799Z,16.43
2023-05-01T21:01:33.391Z,16.88
2023-05-01T21:04:00.906Z,16.87
2023-05-01T21:06:31.600Z,16.37
2023-05-01T21:08:59.578Z,16.37
2023-05-01T21:11:26.652Z,16.29
2023-05-01T21:13:54.159Z,16.38
2023-05-01T21:16:21.321Z,16.34
2023-05-01T21:18:50.073Z,16.35
2023-05-01T21:21:17.226Z,16.78
2023-05-01T21:23:48.801Z,16.37
2023-05-01T21:26:16.373Z,16.41
2023-05-01T21:28:43.755Z,16.44
2023-05-01T21:31:12.217Z,16.57
2023-05-01T21:33:40.487Z,16.79
2023-05-01T21:36:10.694Z,16.65
2023-05-01T21:38:39.123Z,16.50
2023-05-01T21:41:06.346Z,16.85
2023-05-01T21:43:34.814Z,16.41
2023-05-01T21:46:02.765Z,16.87
2023-05-01T21:48:34.667Z,16.52
2023-05-01T21:51:01.716Z,16.46
2023-05-01T21:53:32.209Z,16.88
2023-05-01T21:55:59.301Z,16.88
2023-05-01T21:58:28.237Z,16.89
2023-05-01T22:00:55.491Z,16.55
2023-05-01T22:03:25.008Z,16.58
2023-05-01T22:05:53.130Z,16.03
2023-05-01T22:08:20.528Z,16.40
2023-05-01T22:10:49.361Z,16.39
2023-05-01T22:13:17.052Z,16.82
2023-05-01T22:15:44.071Z,16.67
2023-05-01T22:18:11.554Z,16.68
2023-05-01T22:20:38.500Z,16.26
2023-05-01T22:23:05.852Z,16.59
2023-05-01T22:25:33.049Z,16.58
2023-05-01T22:28:04.303Z,16.57
2023-05-01T22:30:31.504Z,16.10
2023-05-01T22:32:58.991Z,16.47
2023-05-01T22:35:26.305Z,15.99
2023-05-01T22:37:53.604Z,16.42
2023-05-01T22:40:20.715Z,16.20
2023-05-01T22:42:48.101Z,15.86
2023-05-01T22:45:16.820Z,15.79
2023-05-01T22:47:44.184Z,16.17
2023-05-01T22:50:12.092Z,16.10
2023-05-01T22:52:40.296Z,16.07
2023-05-01T22:55:07.891Z,15.41
2023-05-01T22:57:35.186Z,15.50
2023-05-01T23:00:02.444Z,15.91
2023-05-01T23:02:32.985Z,15.47
2023-05-01T23:05:00.333Z,15.84
2023-05-01T23:07:27.609Z,15.33
2023-05-01T23:09:56.220Z,15.40
2023-05-01T23:12:25.672Z,15.28
2023-05-01T23:14:54.599Z,15.22
2023-05-01T23:17:22.082Z,15.65
2023-05-01T23:19:50.485Z,15.62
2023-05-01T23:22:19.213Z,15.44
2023-05-01T23:24:48.383Z,15.19
2023-05-01T23:27:16.877Z,15.27
2023-05-01T23:29:52.210Z,15.22
2023-05-01T23:32:25.472Z,15.33
2023-05-01T23:34:55.227Z,15.76
2023-05-01T23:37:22.657Z,15.28
2023-05-01T23:39:49.606Z,15.84
2023-05-01T23:42:16.965Z,15.33
2023-05-01T23:44:44.069Z,15.29
2023-05-01T23:47:11.662Z,14.87
2023-05-01T23:49:38.843Z,15.69
2023-05-01T23:52:07.810Z,15.68
2023-05-01T23:54:35.127Z,15.35
2023-05-01T23:57:02.465Z,15.56
2023-05-01T23:59:29.413Z,14.98
